sensor_id;sensor_type;location;lat;lon;timestamp;temperature;humidity
67603;DHT22;54417;47.454;18.918;2023-07-22T00:05:10;15.59;95.10
67603;DHT22;54417;47.454;18.918;2023-07-22T00:10:21;15.53;95.42
67603;DHT22;54417;47.454;18.918;2023-07-22T00:15:24;15.49;95.35
67603;DHT22;54417;47.454;18.918;2023-07-22T00:20:33;15.40;95.52
67603;DHT22;54417;47.454;18.918;2023-07-22T00:25:43;15.39;95.52
67603;DHT22;54417;47.454;18.918;2023-07-22T00:30:51;15.33;95.83
67603;DHT22;54417;47.454;18.918;2023-07-22T00:36:00;15.33;96.03
67603;DHT22;54417;47.454;18.918;2023-07-22T00:41:10;15.32;96.07
67603;DHT22;54417;47.454;18.918;2023-07-22T00:46:15;15.32;96.08
67603;DHT22;54417;47.454;18.918;2023-07-22T00:51:24;15.38;96.08
67603;DHT22;54417;47.454;18.918;2023-07-22T00:56:35;15.40;96.07
67603;DHT22;54417;47.454;18.918;2023-07-22T01:01:44;15.50;96.05
67603;DHT22;54417;47.454;18.918;2023-07-22T01:06:52;15.50;95.95
67603;DHT22;54417;47.454;18.918;2023-07-22T01:12:03;15.56;95.88
67603;DHT22;54417;47.454;18.918;2023-07-22T01:17:08;15.54;95.82
67603;DHT22;54417;47.454;18.918;2023-07-22T01:22:17;15.54;95.77
67603;DHT22;54417;47.454;18.918;2023-07-22T01:27:27;15.64;95.72
67603;DHT22;54417;47.454;18.918;2023-07-22T01:32:35;15.54;95.53
67603;DHT22;54417;47.454;18.918;2023-07-22T01:37:44;15.51;95.71
67603;DHT22;54417;47.454;18.918;2023-07-22T01:42:54;15.43;95.80
67603;DHT22;54417;47.454;18.918;2023-07-22T01:48:02;15.40;95.80
67603;DHT22;54417;47.454;18.918;2023-07-22T01:53:11;15.36;95.72
67603;DHT22;54417;47.454;18.918;2023-07-22T01:58:16;15.28;95.82
67603;DHT22;54417;47.454;18.918;2023-07-22T02:03:24;15.23;95.84
67603;DHT22;54417;47.454;18.918;2023-07-22T02:08:28;15.15;95.88
67603;DHT22;54417;47.454;18.918;2023-07-22T02:13:38;15.06;95.87
67603;DHT22;54417;47.454;18.918;2023-07-22T02:18:47;14.99;95.85
67603;DHT22;54417;47.454;18.918;2023-07-22T02:23:56;14.92;95.84
67603;DHT22;54417;47.454;18.918;2023-07-22T02:29:06;14.89;95.74
67603;DHT22;54417;47.454;18.918;2023-07-22T02:34:15;14.87;95.98
67603;DHT22;54417;47.454;18.918;2023-07-22T02:39:24;14.85;96.26
67603;DHT22;54417;47.454;18.918;2023-07-22T02:44:34;14.87;96.24
67603;DHT22;54417;47.454;18.918;2023-07-22T02:49:42;14.91;96.39
67603;DHT22;54417;47.454;18.918;2023-07-22T02:55:07;14.88;96.70
67603;DHT22;54417;47.454;18.918;2023-07-22T03:00:15;14.85;96.77
67603;DHT22;54417;47.454;18.918;2023-07-22T03:05:31;14.84;96.74
67603;DHT22;54417;47.454;18.918;2023-07-22T03:10:41;14.82;96.45
67603;DHT22;54417;47.454;18.918;2023-07-22T03:15:52;14.82;96.87
67603;DHT22;54417;47.454;18.918;2023-07-22T03:21:01;14.89;96.91
67603;DHT22;54417;47.454;18.918;2023-07-22T03:26:09;14.96;96.66
67603;DHT22;54417;47.454;18.918;2023-07-22T03:31:19;15.03;96.30
67603;DHT22;54417;47.454;18.918;2023-07-22T03:36:28;15.12;96.20
67603;DHT22;54417;47.454;18.918;2023-07-22T03:41:37;15.16;96.10
67603;DHT22;54417;47.454;18.918;2023-07-22T03:46:46;15.20;96.06
67603;DHT22;54417;47.454;18.918;2023-07-22T03:51:55;15.23;96.28
67603;DHT22;54417;47.454;18.918;2023-07-22T03:56:59;15.35;96.07
67603;DHT22;54417;47.454;18.918;2023-07-22T04:02:08;15.40;95.98
67603;DHT22;54417;47.454;18.918;2023-07-22T04:07:17;15.38;96.21
67603;DHT22;54417;47.454;18.918;2023-07-22T04:12:26;15.53;96.50
67603;DHT22;54417;47.454;18.918;2023-07-22T04:17:36;15.70;96.65
67603;DHT22;54417;47.454;18.918;2023-07-22T04:22:44;16.04;96.45
67603;DHT22;54417;47.454;18.918;2023-07-22T04:27:52;16.38;96.13
67603;DHT22;54417;47.454;18.918;2023-07-22T04:33:03;16.62;95.42
67603;DHT22;54417;47.454;18.918;2023-07-22T04:38:13;16.86;95.02
67603;DHT22;54417;47.454;18.918;2023-07-22T04:43:16;17.06;94.80
67603;DHT22;54417;47.454;18.918;2023-07-22T04:48:29;17.18;94.11
67603;DHT22;54417;47.454;18.918;2023-07-22T04:53:38;17.35;93.83
67603;DHT22;54417;47.454;18.918;2023-07-22T04:58:47;17.58;93.91
67603;DHT22;54417;47.454;18.918;2023-07-22T05:03:57;17.63;93.67
67603;DHT22;54417;47.454;18.918;2023-07-22T05:09:02;17.86;93.55
67603;DHT22;54417;47.454;18.918;2023-07-22T05:14:11;18.10;92.89
67603;DHT22;54417;47.454;18.918;2023-07-22T05:19:21;18.29;92.49
67603;DHT22;54417;47.454;18.918;2023-07-22T05:24:29;18.50;91.29
67603;DHT22;54417;47.454;18.918;2023-07-22T05:29:38;18.61;90.83
67603;DHT22;54417;47.454;18.918;2023-07-22T05:34:47;18.76;89.77
67603;DHT22;54417;47.454;18.918;2023-07-22T05:39:56;18.92;88.60
67603;DHT22;54417;47.454;18.918;2023-07-22T05:45:05;19.06;88.56
67603;DHT22;54417;47.454;18.918;2023-07-22T05:50:15;19.29;88.89
67603;DHT22;54417;47.454;18.918;2023-07-22T05:55:18;19.47;87.53
67603;DHT22;54417;47.454;18.918;2023-07-22T06:00:22;19.70;87.30
67603;DHT22;54417;47.454;18.918;2023-07-22T06:05:32;19.78;87.41
67603;DHT22;54417;47.454;18.918;2023-07-22T06:10:41;19.86;85.22
67603;DHT22;54417;47.454;18.918;2023-07-22T06:15:45;19.96;84.21
67603;DHT22;54417;47.454;18.918;2023-07-22T06:20:55;20.01;83.92
67603;DHT22;54417;47.454;18.918;2023-07-22T06:26:03;20.33;83.52
67603;DHT22;54417;47.454;18.918;2023-07-22T06:31:12;20.39;80.50
67603;DHT22;54417;47.454;18.918;2023-07-22T06:36:17;20.64;81.80
67603;DHT22;54417;47.454;18.918;2023-07-22T06:41:25;20.91;81.54
67603;DHT22;54417;47.454;18.918;2023-07-22T06:46:34;21.31;80.49
67603;DHT22;54417;47.454;18.918;2023-07-22T06:51:44;21.59;79.07
67603;DHT22;54417;47.454;18.918;2023-07-22T06:56:52;21.50;78.43
67603;DHT22;54417;47.454;18.918;2023-07-22T07:02:01;21.46;76.87
67603;DHT22;54417;47.454;18.918;2023-07-22T07:07:11;21.43;76.66
67603;DHT22;54417;47.454;18.918;2023-07-22T07:12:20;21.52;75.63
67603;DHT22;54417;47.454;18.918;2023-07-22T07:17:29;21.59;76.63
67603;DHT22;54417;47.454;18.918;2023-07-22T07:22:39;21.94;74.68
67603;DHT22;54417;47.454;18.918;2023-07-22T07:27:47;22.04;74.72
67603;DHT22;54417;47.454;18.918;2023-07-22T07:32:56;22.17;72.44
67603;DHT22;54417;47.454;18.918;2023-07-22T07:38:06;22.30;74.00
67603;DHT22;54417;47.454;18.918;2023-07-22T07:43:14;22.31;71.07
67603;DHT22;54417;47.454;18.918;2023-07-22T07:48:23;22.25;72.06
67603;DHT22;54417;47.454;18.918;2023-07-22T07:53:33;22.58;71.99
67603;DHT22;54417;47.454;18.918;2023-07-22T07:58:42;22.88;71.66
67603;DHT22;54417;47.454;18.918;2023-07-22T08:03:50;22.81;70.50
67603;DHT22;54417;47.454;18.918;2023-07-22T08:09:00;22.85;70.52
67603;DHT22;54417;47.454;18.918;2023-07-22T08:14:10;22.96;69.11
67603;DHT22;54417;47.454;18.918;2023-07-22T08:19:18;23.44;67.57
67603;DHT22;54417;47.454;18.918;2023-07-22T08:24:28;23.47;67.55
67603;DHT22;54417;47.454;18.918;2023-07-22T08:29:37;23.85;66.58
67603;DHT22;54417;47.454;18.918;2023-07-22T08:34:45;24.15;66.29
67603;DHT22;54417;47.454;18.918;2023-07-22T08:39:55;24.29;64.68
67603;DHT22;54417;47.454;18.918;2023-07-22T08:45:04;24.22;64.28
67603;DHT22;54417;47.454;18.918;2023-07-22T08:50:15;24.20;63.46
67603;DHT22;54417;47.454;18.918;2023-07-22T08:55:26;24.50;63.29
67603;DHT22;54417;47.454;18.918;2023-07-22T09:00:35;24.41;62.70
67603;DHT22;54417;47.454;18.918;2023-07-22T09:05:43;24.78;61.36
67603;DHT22;54417;47.454;18.918;2023-07-22T09:10:54;24.97;61.28
67603;DHT22;54417;47.454;18.918;2023-07-22T09:16:04;24.91;60.87
67603;DHT22;54417;47.454;18.918;2023-07-22T09:21:08;25.04;58.04
67603;DHT22;54417;47.454;18.918;2023-07-22T09:26:18;24.95;57.54
67603;DHT22;54417;47.454;18.918;2023-07-22T09:31:27;24.91;58.11
67603;DHT22;54417;47.454;18.918;2023-07-22T09:36:44;25.24;60.30
67603;DHT22;54417;47.454;18.918;2023-07-22T09:41:58;25.32;56.61
67603;DHT22;54417;47.454;18.918;2023-07-22T09:47:09;24.81;59.93
67603;DHT22;54417;47.454;18.918;2023-07-22T09:52:17;25.24;59.46
67603;DHT22;54417;47.454;18.918;2023-07-22T09:57:27;25.08;55.50
67603;DHT22;54417;47.454;18.918;2023-07-22T10:02:36;25.31;56.35
67603;DHT22;54417;47.454;18.918;2023-07-22T10:07:48;25.29;56.75
67603;DHT22;54417;47.454;18.918;2023-07-22T10:12:58;25.59;57.18
67603;DHT22;54417;47.454;18.918;2023-07-22T10:18:07;25.38;55.07
67603;DHT22;54417;47.454;18.918;2023-07-22T10:23:17;25.53;55.85
67603;DHT22;54417;47.454;18.918;2023-07-22T10:28:27;25.53;55.33
67603;DHT22;54417;47.454;18.918;2023-07-22T10:33:36;25.83;55.39
67603;DHT22;54417;47.454;18.918;2023-07-22T10:38:45;25.90;53.00
67603;DHT22;54417;47.454;18.918;2023-07-22T10:44:04;25.90;54.49
67603;DHT22;54417;47.454;18.918;2023-07-22T10:49:10;25.55;52.58
67603;DHT22;54417;47.454;18.918;2023-07-22T10:54:14;25.63;53.14
67603;DHT22;54417;47.454;18.918;2023-07-22T10:59:26;25.89;52.30
67603;DHT22;54417;47.454;18.918;2023-07-22T11:04:35;25.67;50.58
67603;DHT22;54417;47.454;18.918;2023-07-22T11:09:57;26.31;51.39
67603;DHT22;54417;47.454;18.918;2023-07-22T11:15:07;26.24;52.19
67603;DHT22;54417;47.454;18.918;2023-07-22T11:20:16;26.34;48.77
67603;DHT22;54417;47.454;18.918;2023-07-22T11:25:26;26.40;50.36
67603;DHT22;54417;47.454;18.918;2023-07-22T11:30:35;26.65;50.84
67603;DHT22;54417;47.454;18.918;2023-07-22T11:35:44;26.73;49.04
67603;DHT22;54417;47.454;18.918;2023-07-22T11:40:50;26.72;49.63
67603;DHT22;54417;47.454;18.918;2023-07-22T11:46:00;26.82;48.46
67603;DHT22;54417;47.454;18.918;2023-07-22T11:51:08;27.00;48.76
67603;DHT22;54417;47.454;18.918;2023-07-22T11:56:17;27.00;48.64
67603;DHT22;54417;47.454;18.918;2023-07-22T12:01:30;27.23;46.63
67603;DHT22;54417;47.454;18.918;2023-07-22T12:06:40;26.65;46.02
67603;DHT22;54417;47.454;18.918;2023-07-22T12:11:49;26.24;47.67
67603;DHT22;54417;47.454;18.918;2023-07-22T12:17:07;26.42;46.04
67603;DHT22;54417;47.454;18.918;2023-07-22T12:22:16;26.68;46.97
67603;DHT22;54417;47.454;18.918;2023-07-22T12:27:25;26.86;47.54
67603;DHT22;54417;47.454;18.918;2023-07-22T12:32:35;27.04;46.21
67603;DHT22;54417;47.454;18.918;2023-07-22T12:37:43;27.26;46.42
67603;DHT22;54417;47.454;18.918;2023-07-22T12:42:47;27.20;46.87
67603;DHT22;54417;47.454;18.918;2023-07-22T12:47:57;27.07;46.44
67603;DHT22;54417;47.454;18.918;2023-07-22T12:53:05;27.30;45.77
67603;DHT22;54417;47.454;18.918;2023-07-22T12:58:14;27.22;45.14
67603;DHT22;54417;47.454;18.918;2023-07-22T13:03:24;27.16;43.72
67603;DHT22;54417;47.454;18.918;2023-07-22T13:08:32;26.48;45.54
67603;DHT22;54417;47.454;18.918;2023-07-22T13:13:41;26.86;44.92
67603;DHT22;54417;47.454;18.918;2023-07-22T13:18:51;27.26;44.97
67603;DHT22;54417;47.454;18.918;2023-07-22T13:23:59;27.58;44.28
67603;DHT22;54417;47.454;18.918;2023-07-22T13:29:08;27.51;43.92
67603;DHT22;54417;47.454;18.918;2023-07-22T13:34:18;27.38;43.31
67603;DHT22;54417;47.454;18.918;2023-07-22T13:39:26;27.22;42.56
67603;DHT22;54417;47.454;18.918;2023-07-22T13:44:35;27.11;44.33
67603;DHT22;54417;47.454;18.918;2023-07-22T13:49:47;27.36;41.65
67603;DHT22;54417;47.454;18.918;2023-07-22T13:54:56;27.44;44.23
67603;DHT22;54417;47.454;18.918;2023-07-22T14:00:05;27.91;44.20
67603;DHT22;54417;47.454;18.918;2023-07-22T14:05:14;28.05;43.60
67603;DHT22;54417;47.454;18.918;2023-07-22T14:10:18;28.13;44.01
67603;DHT22;54417;47.454;18.918;2023-07-22T14:15:26;27.96;42.04
67603;DHT22;54417;47.454;18.918;2023-07-22T14:20:36;27.71;42.49
67603;DHT22;54417;47.454;18.918;2023-07-22T14:25:45;27.64;42.58
67603;DHT22;54417;47.454;18.918;2023-07-22T14:30:53;27.68;43.60
67603;DHT22;54417;47.454;18.918;2023-07-22T14:36:03;27.40;42.99
67603;DHT22;54417;47.454;18.918;2023-07-22T14:41:12;27.41;43.26
67603;DHT22;54417;47.454;18.918;2023-07-22T14:46:20;27.44;43.95
67603;DHT22;54417;47.454;18.918;2023-07-22T14:51:30;27.27;41.58
67603;DHT22;54417;47.454;18.918;2023-07-22T14:56:39;27.37;41.92
67603;DHT22;54417;47.454;18.918;2023-07-22T15:01:47;27.37;40.04
67603;DHT22;54417;47.454;18.918;2023-07-22T15:06:57;29.42;37.74
67603;DHT22;54417;47.454;18.918;2023-07-22T15:12:01;31.50;36.00
67603;DHT22;54417;47.454;18.918;2023-07-22T15:17:05;32.80;32.79
67603;DHT22;54417;47.454;18.918;2023-07-22T15:22:14;33.68;31.39
67603;DHT22;54417;47.454;18.918;2023-07-22T15:27:23;34.36;30.46
67603;DHT22;54417;47.454;18.918;2023-07-22T15:32:32;34.50;30.78
67603;DHT22;54417;47.454;18.918;2023-07-22T15:37:42;34.16;30.48
67603;DHT22;54417;47.454;18.918;2023-07-22T15:42:50;32.32;32.05
67603;DHT22;54417;47.454;18.918;2023-07-22T15:47:59;31.65;33.73
67603;DHT22;54417;47.454;18.918;2023-07-22T15:53:11;30.56;36.29
67603;DHT22;54417;47.454;18.918;2023-07-22T15:58:19;29.26;37.49
67603;DHT22;54417;47.454;18.918;2023-07-22T16:03:23;28.32;39.91
67603;DHT22;54417;47.454;18.918;2023-07-22T16:08:28;27.64;41.46
67603;DHT22;54417;47.454;18.918;2023-07-22T16:13:39;27.11;42.30
67603;DHT22;54417;47.454;18.918;2023-07-22T16:18:47;26.90;43.16
67603;DHT22;54417;47.454;18.918;2023-07-22T16:23:57;26.62;44.90
67603;DHT22;54417;47.454;18.918;2023-07-22T16:29:06;26.40;45.36
67603;DHT22;54417;47.454;18.918;2023-07-22T16:34:14;26.22;45.89
67603;DHT22;54417;47.454;18.918;2023-07-22T16:39:25;26.13;48.50
67603;DHT22;54417;47.454;18.918;2023-07-22T16:44:29;26.14;47.69
67603;DHT22;54417;47.454;18.918;2023-07-22T16:49:34;26.00;45.96
67603;DHT22;54417;47.454;18.918;2023-07-22T16:54:44;25.98;48.46
67603;DHT22;54417;47.454;18.918;2023-07-22T16:59:53;25.97;48.42
67603;DHT22;54417;47.454;18.918;2023-07-22T17:05:01;25.86;50.14
67603;DHT22;54417;47.454;18.918;2023-07-22T17:10:13;25.74;48.43
67603;DHT22;54417;47.454;18.918;2023-07-22T17:15:21;25.49;48.15
67603;DHT22;54417;47.454;18.918;2023-07-22T17:20:25;25.39;48.97
67603;DHT22;54417;47.454;18.918;2023-07-22T17:25:35;25.28;51.66
67603;DHT22;54417;47.454;18.918;2023-07-22T17:30:43;24.88;49.74
67603;DHT22;54417;47.454;18.918;2023-07-22T17:35:52;24.60;51.37
67603;DHT22;54417;47.454;18.918;2023-07-22T17:41:02;24.35;54.13
67603;DHT22;54417;47.454;18.918;2023-07-22T17:46:10;24.28;58.56
67603;DHT22;54417;47.454;18.918;2023-07-22T17:51:19;23.86;58.83
67603;DHT22;54417;47.454;18.918;2023-07-22T17:56:29;23.51;59.50
67603;DHT22;54417;47.454;18.918;2023-07-22T18:01:37;23.26;61.05
67603;DHT22;54417;47.454;18.918;2023-07-22T18:06:46;22.83;62.25
67603;DHT22;54417;47.454;18.918;2023-07-22T18:11:55;22.65;63.84
67603;DHT22;54417;47.454;18.918;2023-07-22T18:17:04;22.38;64.31
67603;DHT22;54417;47.454;18.918;2023-07-22T18:22:13;22.27;65.83
67603;DHT22;54417;47.454;18.918;2023-07-22T18:27:23;21.96;64.60
67603;DHT22;54417;47.454;18.918;2023-07-22T18:32:31;21.87;65.66
67603;DHT22;54417;47.454;18.918;2023-07-22T18:37:40;21.62;67.09
67603;DHT22;54417;47.454;18.918;2023-07-22T18:42:50;21.41;67.64
67603;DHT22;54417;47.454;18.918;2023-07-22T18:47:58;21.22;68.11
67603;DHT22;54417;47.454;18.918;2023-07-22T18:53:07;21.27;69.50
67603;DHT22;54417;47.454;18.918;2023-07-22T18:58:17;21.04;71.08
67603;DHT22;54417;47.454;18.918;2023-07-22T19:03:25;21.00;70.65
67603;DHT22;54417;47.454;18.918;2023-07-22T19:08:34;20.80;70.18
67603;DHT22;54417;47.454;18.918;2023-07-22T19:13:43;20.71;72.34
67603;DHT22;54417;47.454;18.918;2023-07-22T19:18:52;20.63;70.94
67603;DHT22;54417;47.454;18.918;2023-07-22T19:24:00;20.47;70.97
67603;DHT22;54417;47.454;18.918;2023-07-22T19:29:10;20.42;72.52
67603;DHT22;54417;47.454;18.918;2023-07-22T19:34:19;20.25;73.88
67603;DHT22;54417;47.454;18.918;2023-07-22T19:39:27;20.18;73.42
67603;DHT22;54417;47.454;18.918;2023-07-22T19:44:37;20.06;74.37
67603;DHT22;54417;47.454;18.918;2023-07-22T19:49:46;19.96;73.10
67603;DHT22;54417;47.454;18.918;2023-07-22T19:54:54;19.99;75.26
67603;DHT22;54417;47.454;18.918;2023-07-22T19:59:59;19.96;75.95
67603;DHT22;54417;47.454;18.918;2023-07-22T20:05:18;19.89;75.90
67603;DHT22;54417;47.454;18.918;2023-07-22T20:10:26;19.96;76.73
67603;DHT22;54417;47.454;18.918;2023-07-22T20:15:36;19.88;76.14
67603;DHT22;54417;47.454;18.918;2023-07-22T20:20:45;19.77;75.90
67603;DHT22;54417;47.454;18.918;2023-07-22T20:25:53;19.71;75.49
67603;DHT22;54417;47.454;18.918;2023-07-22T20:31:05;19.74;76.22
67603;DHT22;54417;47.454;18.918;2023-07-22T20:36:13;19.74;76.11
67603;DHT22;54417;47.454;18.918;2023-07-22T20:41:23;19.75;76.72
67603;DHT22;54417;47.454;18.918;2023-07-22T20:46:33;19.71;76.25
67603;DHT22;54417;47.454;18.918;2023-07-22T20:51:42;19.67;76.57
67603;DHT22;54417;47.454;18.918;2023-07-22T20:56:50;19.60;76.66
67603;DHT22;54417;47.454;18.918;2023-07-22T21:02:00;19.57;76.35
67603;DHT22;54417;47.454;18.918;2023-07-22T21:07:12;19.53;76.10
67603;DHT22;54417;47.454;18.918;2023-07-22T21:12:21;19.51;76.61
67603;DHT22;54417;47.454;18.918;2023-07-22T21:17:30;19.43;76.57
67603;DHT22;54417;47.454;18.918;2023-07-22T21:22:39;19.34;76.09
67603;DHT22;54417;47.454;18.918;2023-07-22T21:27:47;19.29;75.82
67603;DHT22;54417;47.454;18.918;2023-07-22T21:32:57;19.31;76.17
67603;DHT22;54417;47.454;18.918;2023-07-22T21:38:06;19.36;76.96
67603;DHT22;54417;47.454;18.918;2023-07-22T21:43:14;19.31;77.53
67603;DHT22;54417;47.454;18.918;2023-07-22T21:48:24;19.34;77.45
67603;DHT22;54417;47.454;18.918;2023-07-22T21:53:33;19.19;77.91
67603;DHT22;54417;47.454;18.918;2023-07-22T21:58:41;19.00;78.54
67603;DHT22;54417;47.454;18.918;2023-07-22T22:03:51;18.94;78.56
67603;DHT22;54417;47.454;18.918;2023-07-22T22:09:00;18.98;78.03
67603;DHT22;54417;47.454;18.918;2023-07-22T22:14:08;18.89;76.06
67603;DHT22;54417;47.454;18.918;2023-07-22T22:19:18;18.98;74.59
67603;DHT22;54417;47.454;18.918;2023-07-22T22:24:27;18.91;76.48
67603;DHT22;54417;47.454;18.918;2023-07-22T22:29:36;18.64;77.79
67603;DHT22;54417;47.454;18.918;2023-07-22T22:34:41;18.45;78.31
67603;DHT22;54417;47.454;18.918;2023-07-22T22:39:50;18.26;78.60
67603;DHT22;54417;47.454;18.918;2023-07-22T22:44:58;18.07;79.70
67603;DHT22;54417;47.454;18.918;2023-07-22T22:50:08;17.85;80.44
67603;DHT22;54417;47.454;18.918;2023-07-22T22:55:17;17.65;80.99
67603;DHT22;54417;47.454;18.918;2023-07-22T23:00:20;17.46;81.24
67603;DHT22;54417;47.454;18.918;2023-07-22T23:05:30;17.35;81.47
67603;DHT22;54417;47.454;18.918;2023-07-22T23:10:44;17.24;82.33
67603;DHT22;54417;47.454;18.918;2023-07-22T23:15:53;17.06;82.59
67603;DHT22;54417;47.454;18.918;2023-07-22T23:21:02;16.93;83.01
67603;DHT22;54417;47.454;18.918;2023-07-22T23:26:11;16.81;83.13
67603;DHT22;54417;47.454;18.918;2023-07-22T23:31:19;16.77;83.04
67603;DHT22;54417;47.454;18.918;2023-07-22T23:36:30;16.65;83.77
67603;DHT22;54417;47.454;18.918;2023-07-22T23:41:39;16.52;84.20
67603;DHT22;54417;47.454;18.918;2023-07-22T23:46:47;16.35;84.69
67603;DHT22;54417;47.454;18.918;2023-07-22T23:51:52;16.25;85.22
67603;DHT22;54417;47.454;18.918;2023-07-22T23:57:01;16.18;85.25
